Husser, Louisiana
Current Conditions -  °F | °C
As of 11:00 PM on Sunday 21 Dec 2014 (Local Time) from KMCB Reporting Station
Overcast Overcast  
Wind Chill: 51°   Ceiling: 600
Heat Index: 51°   Visibility: 7mi
Dew Point: 49°   Wind: 8mph
Humidity: 92%   Direction: 130°SE
Pressure: 29.95"   Gusts: NA
Location:  30.68°N, 90.34°W
Report Text: KMCB 220500Z AUTO 13007KT 7SM BKN006 OVC095 11/09 A2995 RMK AO2 T01060094 $
Loading
Personal Weather Stations






























Interactive Weather Map New forecast layout! Learn more

10-Day Weather Forecast

Advertisements
Track Severe Weather on mobile